Time;durP1;ratioP1;P1;durP2;ratioP2;P2;SDS_P1;SDS_P2;PMS_P1;PMS_P2;Temp;Humidity;BMP_temperature;BMP_pressure;BME280_temperature;BME280_humidity;BME280_pressure;Samples;Min_cycle;Max_cycle;Signal;HPM_P1;HPM_P2
2023/10/07 00:01:24;;;;;;;;;;;;;;;16.95;100.00;100526.09;4893501;29;19927;-78
2023/10/07 00:03:52;;;;;;;;;;;;;;;16.83;100.00;100522.88;4890792;29;20392;-81
2023/10/07 00:06:18;;;;;;;;;;;;;;;16.74;100.00;100524.66;4891222;29;20403;-79
2023/10/07 00:08:44;;;;;;;;;;;;;;;16.78;100.00;100520.69;4893302;29;19923;-79
2023/10/07 00:11:16;;;;;;;;;;;;;;;16.86;100.00;100524.38;4892678;29;19975;-79
2023/10/07 00:13:42;;;;;;;;;;;;;;;16.91;100.00;100516.72;4893618;29;20429;-80
2023/10/07 00:16:10;;;;;;;;;;;;;;;16.90;100.00;100515.09;4891644;29;19923;-80
2023/10/07 00:18:37;;;;;;;;;;;;;;;16.86;100.00;100514.56;4892813;29;20367;-79
2023/10/07 00:21:04;;;;;;;;;;;;;;;16.86;100.00;100514.56;4892356;29;20455;-79
2023/10/07 00:23:29;;;;;;;;;;;;;;;16.84;100.00;100513.06;4891881;29;20014;-78
2023/10/07 00:25:57;;;;;;;;;;;;;;;16.81;100.00;100522.19;4890500;29;20011;-80
2023/10/07 00:28:35;;;;;;;;;;;;;;;16.84;100.00;100515.72;4861375;29;20407;-79
2023/10/07 00:31:12;;;;;;;;;;;;;;;16.86;100.00;100519.88;4888487;29;19927;-80
2023/10/07 00:39:08;;;;;;;;;;;;;;;16.79;100.00;100513.50;4890884;29;20018;-81
2023/10/07 00:41:39;;;;;;;;;;;;;;;16.72;100.00;100508.00;4894021;29;19923;-81
2023/10/07 00:44:17;;;;;;;;;;;;;;;16.70;100.00;100510.00;4872647;29;19924;-81
2023/10/07 00:46:48;;;;;;;;;;;;;;;16.67;100.00;100510.28;4890538;29;19927;-80
2023/10/07 00:49:22;;;;;;;;;;;;;;;16.65;100.00;100508.78;4892510;29;20032;-80
2023/10/07 00:51:49;;;;;;;;;;;;;;;16.64;100.00;100504.44;4890867;29;20377;-80
2023/10/07 00:57:07;;;;;;;;;;;;;;;16.61;100.00;100499.47;4889182;29;20409;-79
2023/10/07 00:59:35;;;;;;;;;;;;;;;16.63;100.00;100503.63;4871305;29;20006;-80
2023/10/07 01:02:00;;;;;;;;;;;;;;;16.67;100.00;100499.63;4871486;29;19932;-81
2023/10/07 01:04:39;;;;;;;;;;;;;;;16.72;100.00;100502.69;4891253;29;19934;-80
2023/10/07 01:07:04;;;;;;;;;;;;;;;16.77;100.00;100489.72;4891197;29;20453;-80
2023/10/07 01:09:31;;;;;;;;;;;;;;;16.80;100.00;100483.19;4889858;29;19924;-80
2023/10/07 01:11:59;;;;;;;;;;;;;;;16.71;100.00;100495.69;4891545;29;19931;-81
2023/10/07 01:14:27;;;;;;;;;;;;;;;16.61;100.00;100489.59;4892546;29;19948;-80
2023/10/07 01:16:53;;;;;;;;;;;;;;;16.59;100.00;100486.28;4890510;29;20484;-81
2023/10/07 01:19:19;;;;;;;;;;;;;;;16.63;100.00;100487.63;4889878;29;19923;-80
2023/10/07 01:22:05;;;;;;;;;;;;;;;16.62;100.00;100485.94;4891196;29;19923;-80
2023/10/07 01:27:28;;;;;;;;;;;;;;;16.59;100.00;100483.63;4891061;29;19928;-81
2023/10/07 01:29:59;;;;;;;;;;;;;;;16.56;100.00;100475.91;4892628;29;19924;-79
2023/10/07 01:32:31;;;;;;;;;;;;;;;16.57;100.00;100477.56;4889298;29;20388;-79
2023/10/07 01:34:58;;;;;;;;;;;;;;;16.57;100.00;100477.56;4892958;29;20307;-80
2023/10/07 01:37:25;;;;;;;;;;;;;;;16.54;100.00;100472.56;4888698;29;19923;-79
2023/10/07 01:39:52;;;;;;;;;;;;;;;16.55;100.00;100468.09;4892769;29;19962;-80
2023/10/07 01:42:37;;;;;;;;;;;;;;;16.48;100.00;100462.56;4889415;29;19979;-80
2023/10/07 01:45:22;;;;;;;;;;;;;;;16.53;100.00;100470.06;4886420;29;19924;-81
2023/10/07 01:47:49;;;;;;;;;;;;;;;16.52;100.00;100463.06;4886993;29;19963;-79
2023/10/07 01:50:18;;;;;;;;;;;;;;;16.39;100.00;100466.16;4889059;29;20300;-80
2023/10/07 01:52:52;;;;;;;;;;;;;;;16.27;100.00;100459.41;4875322;29;20340;-80
2023/10/07 01:55:19;;;;;;;;;;;;;;;15.89;100.00;100471.31;4872394;29;19924;-79
2023/10/07 01:57:45;;;;;;;;;;;;;;;15.77;100.00;100468.06;4875482;29;20337;-80
2023/10/07 02:00:29;;;;;;;;;;;;;;;15.63;100.00;100473.91;4871702;29;19924;-80
2023/10/07 02:03:01;;;;;;;;;;;;;;;15.61;100.00;100472.41;4891850;29;20296;-79
2023/10/07 02:05:34;;;;;;;;;;;;;;;15.66;100.00;100470.97;4889663;29;20415;-79
2023/10/07 02:08:01;;;;;;;;;;;;;;;15.69;100.00;100464.47;4875625;29;19995;-80
2023/10/07 02:10:27;;;;;;;;;;;;;;;15.69;100.00;100465.31;4890418;29;19931;-80
2023/10/07 02:12:54;;;;;;;;;;;;;;;15.68;100.00;100466.31;4888714;29;20067;-79
2023/10/07 02:15:19;;;;;;;;;;;;;;;15.74;100.00;100457.72;4874713;29;19923;-79
2023/10/07 02:17:47;;;;;;;;;;;;;;;15.79;100.00;100459.91;4889104;29;20010;-79
2023/10/07 02:20:23;;;;;;;;;;;;;;;15.83;100.00;100451.47;4874543;29;19923;-79
2023/10/07 02:22:48;;;;;;;;;;;;;;;15.86;100.00;100450.31;4888232;29;19924;-79
2023/10/07 02:25:20;;;;;;;;;;;;;;;15.87;100.00;100450.16;4888251;29;19924;-79
2023/10/07 02:27:48;;;;;;;;;;;;;;;15.84;100.00;100447.84;4888741;29;20282;-79
2023/10/07 02:30:20;;;;;;;;;;;;;;;15.85;100.00;100449.47;4890731;29;20340;-78
2023/10/07 02:32:48;;;;;;;;;;;;;;;15.79;100.00;100442.13;4888534;29;19924;-77
2023/10/07 02:35:19;;;;;;;;;;;;;;;15.74;100.00;100449.72;4891064;29;20288;-81
2023/10/07 02:37:49;;;;;;;;;;;;;;;15.71;100.00;100444.72;4871297;29;19927;-79
2023/10/07 02:40:35;;;;;;;;;;;;;;;15.69;100.00;100438.72;4872259;29;19920;-79
2023/10/07 02:43:06;;;;;;;;;;;;;;;15.68;100.00;100437.03;4875302;29;20003;-79
2023/10/07 02:45:39;;;;;;;;;;;;;;;15.61;100.00;100441.28;4886109;29;20342;-79
2023/10/07 02:48:10;;;;;;;;;;;;;;;15.63;100.00;100444.66;4891995;29;20385;-79
2023/10/07 02:50:39;;;;;;;;;;;;;;;15.62;100.00;100447.47;4887931;29;20330;-79
2023/10/07 02:53:11;;;;;;;;;;;;;;;15.67;100.00;100446.00;4888365;29;19998;-79
2023/10/07 02:55:47;;;;;;;;;;;;;;;15.62;100.00;100442.13;4890392;29;19926;-80
2023/10/07 02:58:27;;;;;;;;;;;;;;;15.59;100.00;100443.28;4889610;29;20277;-80
2023/10/07 03:00:52;;;;;;;;;;;;;;;15.59;100.00;100443.28;4891777;29;19931;-80
2023/10/07 03:03:32;;;;;;;;;;;;;;;15.66;100.00;100444.34;4891675;29;19924;-80
2023/10/07 03:05:58;;;;;;;;;;;;;;;15.69;100.00;100444.03;4888395;29;20287;-80
2023/10/07 03:08:31;;;;;;;;;;;;;;;15.74;100.00;100441.75;4888184;29;19923;-79
2023/10/07 03:11:03;;;;;;;;;;;;;;;15.75;100.00;100438.09;4891045;29;19920;-81
2023/10/07 03:13:29;;;;;;;;;;;;;;;15.80;100.00;100437.63;4889182;29;20296;-81
2023/10/07 03:16:27;;;;;;;;;;;;;;;15.81;100.00;100442.81;4890856;29;20394;-80
2023/10/07 03:24:10;;;;;;;;;;;;;;;15.81;100.00;100434.81;4889922;29;20300;-81
2023/10/07 03:26:46;;;;;;;;;;;;;;;15.69;100.00;100433.41;4893482;29;19924;-81
2023/10/07 03:29:24;;;;;;;;;;;;;;;15.48;100.00;100436.38;4892464;29;19923;-81
2023/10/07 03:31:49;;;;;;;;;;;;;;;15.33;100.00;100440.53;4896850;29;19955;-81
2023/10/07 03:34:15;;;;;;;;;;;;;;;15.32;100.00;100435.34;4891971;29;19930;-81
2023/10/07 03:36:41;;;;;;;;;;;;;;;15.35;100.00;100440.38;4896104;29;19935;-80
2023/10/07 03:39:22;;;;;;;;;;;;;;;15.36;100.00;100434.91;4895057;29;19924;-79
2023/10/07 03:41:59;;;;;;;;;;;;;;;15.34;100.00;100438.69;4899112;29;20442;-80
2023/10/07 03:44:25;;;;;;;;;;;;;;;15.34;100.00;100436.03;4895635;29;20054;-80
2023/10/07 03:46:54;;;;;;;;;;;;;;;15.37;100.00;100435.75;4898557;29;19935;-81
2023/10/07 03:49:21;;;;;;;;;;;;;;;15.36;100.00;100434.09;4895883;29;19938;-80
2023/10/07 03:51:48;;;;;;;;;;;;;;;15.35;100.00;100432.41;4893955;29;20289;-80
2023/10/07 03:54:16;;;;;;;;;;;;;;;15.40;100.00;100438.94;4879632;29;19927;-80
2023/10/07 03:56:49;;;;;;;;;;;;;;;15.39;100.00;100431.94;4894063;29;20030;-81
2023/10/07 03:59:15;;;;;;;;;;;;;;;15.30;100.00;100432.03;4896610;29;19923;-79
2023/10/07 04:01:42;;;;;;;;;;;;;;;15.28;100.00;100434.00;4890337;29;19935;-80
2023/10/07 04:04:11;;;;;;;;;;;;;;;15.23;100.00;100430.97;4894764;29;20018;-79
2023/10/07 04:06:38;;;;;;;;;;;;;;;15.30;100.00;100432.03;4893637;29;20006;-79
2023/10/07 04:09:07;;;;;;;;;;;;;;;15.34;100.00;100438.69;4897171;29;19930;-79
2023/10/07 04:11:33;;;;;;;;;;;;;;;15.36;100.00;100440.25;4891557;29;20288;-79
2023/10/07 04:14:06;;;;;;;;;;;;;;;15.37;100.00;100433.09;4896475;29;19923;-79
2023/10/07 04:16:33;;;;;;;;;;;;;;;15.32;100.00;100430.88;4878231;29;19924;-80
2023/10/07 04:21:40;;;;;;;;;;;;;;;15.33;100.00;100445.00;4893846;29;20002;-79
2023/10/07 04:24:09;;;;;;;;;;;;;;;15.30;100.00;100440.00;4891316;29;19966;-79
2023/10/07 04:26:54;;;;;;;;;;;;;;;15.24;100.00;100432.63;4891305;29;19966;-79
2023/10/07 04:29:21;;;;;;;;;;;;;;;15.26;100.00;100442.09;4893670;29;19924;-79
2023/10/07 04:31:47;;;;;;;;;;;;;;;15.22;100.00;100445.22;4894693;29;20018;-80
2023/10/07 04:34:15;;;;;;;;;;;;;;;15.18;100.00;100443.88;4891571;29;19967;-80
2023/10/07 04:39:28;;;;;;;;;;;;;;;14.96;100.00;100439.81;4888789;29;19930;-79
2023/10/07 04:42:03;;;;;;;;;;;;;;;14.90;100.00;100446.56;4894581;29;19936;-80
2023/10/07 04:50:33;;;;;;;;;;;;;;;14.82;100.00;100443.81;4890264;29;20023;-78
2023/10/07 04:52:51;;;;;;;;;;;;;;;14.86;100.00;100439.88;4890252;29;19923;-79
2023/10/07 04:55:26;;;;;;;;;;;;;;;14.91;100.00;100448.22;4889038;29;19931;-79
2023/10/07 05:00:43;;;;;;;;;;;;;;;14.92;100.00;100443.75;4893539;29;19923;-79
2023/10/07 05:03:08;;;;;;;;;;;;;;;14.91;100.00;100448.22;4887841;29;20277;-79
2023/10/07 05:05:33;;;;;;;;;;;;;;;14.90;100.00;100435.94;4893962;29;20276;-79
2023/10/07 05:08:08;;;;;;;;;;;;;;;14.95;100.00;100436.31;4896399;29;19923;-78
2023/10/07 05:10:38;;;;;;;;;;;;;;;14.98;100.00;100433.34;4892474;29;19971;-78
2023/10/07 05:13:06;;;;;;;;;;;;;;;14.93;100.00;100437.44;4895757;29;19930;-80
2023/10/07 05:15:31;;;;;;;;;;;;;;;14.90;100.00;100441.25;4893923;29;19930;-79
2023/10/07 05:18:01;;;;;;;;;;;;;;;14.70;100.00;100445.00;4895700;29;19924;-79
2023/10/07 05:20:31;;;;;;;;;;;;;;;14.50;100.00;100443.41;4892701;29;20334;-79
2023/10/07 05:22:59;;;;;;;;;;;;;;;14.45;100.00;100445.66;4889407;29;20642;-78
2023/10/07 05:25:26;;;;;;;;;;;;;;;14.43;100.00;100437.03;4889473;29;20014;-79
2023/10/07 05:27:51;;;;;;;;;;;;;;;14.33;100.00;100448.47;4893759;29;19923;-79
2023/10/07 05:30:21;;;;;;;;;;;;;;;14.15;100.00;100450.19;4889046;29;19930;-79
2023/10/07 05:32:46;;;;;;;;;;;;;;;14.15;100.00;100439.56;4888910;29;20360;-79
2023/10/07 05:35:14;;;;;;;;;;;;;;;14.21;100.00;100449.63;4889020;29;19931;-79
2023/10/07 05:37:41;;;;;;;;;;;;;;;14.23;100.00;100442.34;4888348;29;19931;-79
2023/10/07 05:40:06;;;;;;;;;;;;;;;14.26;100.00;100442.06;4889821;29;19923;-78
2023/10/07 05:42:32;;;;;;;;;;;;;;;14.29;100.00;100457.72;4887086;29;19924;-79
2023/10/07 05:44:57;;;;;;;;;;;;;;;14.28;100.00;100453.38;4885858;29;19974;-78
2023/10/07 05:47:24;;;;;;;;;;;;;;;14.34;100.00;100454.63;4889711;29;19924;-77
2023/10/07 05:49:49;;;;;;;;;;;;;;;14.40;100.00;100461.19;4890232;29;20487;-79
2023/10/07 05:52:18;;;;;;;;;;;;;;;14.45;100.00;100466.91;4891451;29;19924;-77
2023/10/07 05:54:43;;;;;;;;;;;;;;;14.39;100.00;100467.47;4888341;29;19924;-80
2023/10/07 05:57:09;;;;;;;;;;;;;;;14.33;100.00;100475.00;4883265;29;19924;-79
2023/10/07 05:59:34;;;;;;;;;;;;;;;14.33;100.00;100475.00;4870776;29;20006;-79
2023/10/07 06:02:05;;;;;;;;;;;;;;;14.30;100.00;100475.31;4885866;29;20315;-78
2023/10/07 06:04:31;;;;;;;;;;;;;;;14.34;100.00;100470.53;4884607;29;19971;-79
2023/10/07 06:06:57;;;;;;;;;;;;;;;14.34;100.00;100476.69;4895757;29;19930;-79
2023/10/07 06:09:22;;;;;;;;;;;;;;;14.31;100.00;100481.47;4889059;29;19958;-78
2023/10/07 06:11:48;;;;;;;;;;;;;;;14.34;100.00;100481.16;4891906;29;19928;-78
2023/10/07 06:14:14;;;;;;;;;;;;;;;14.37;100.00;100485.38;4891759;29;19967;-79
2023/10/07 06:16:40;;;;;;;;;;;;;;;14.39;100.00;100488.72;4891461;29;20365;-77
2023/10/07 06:19:07;;;;;;;;;;;;;;;14.46;100.00;100484.50;4891106;29;19923;-80
2023/10/07 06:21:32;;;;;;;;;;;;;;;14.46;100.00;100484.50;4905707;29;19966;-79
2023/10/07 06:23:58;;;;;;;;;;;;;;;14.48;100.00;100487.88;4926446;23;19926;-77
2023/10/07 06:26:24;;;;;;;;;;;;;;;14.42;100.00;100493.75;4921290;29;20372;-77
2023/10/07 06:28:49;;;;;;;;;;;;;;;14.40;100.00;100495.72;4927319;29;19927;-78
2023/10/07 06:31:22;;;;;;;;;;;;;;;14.40;100.00;100501.03;4923992;29;20403;-78
2023/10/07 06:34:12;;;;;;;;;;;;;;;14.43;100.00;100500.75;4905598;29;19923;-78
2023/10/07 06:36:40;;;;;;;;;;;;;;;14.49;100.00;100505.50;4914689;29;19923;-77
2023/10/07 06:39:07;;;;;;;;;;;;;;;14.51;100.00;100509.66;4930985;29;19923;-77
2023/10/07 06:41:33;;;;;;;;;;;;;;;14.52;100.00;100515.81;4930843;29;19923;-78
2023/10/07 06:43:59;;;;;;;;;;;;;;;14.50;100.00;100504.47;4926141;29;19923;-77
2023/10/07 06:46:29;;;;;;;;;;;;;;;14.56;100.00;100511.88;4929426;29;19994;-78
2023/10/07 06:48:54;;;;;;;;;;;;;;;14.54;100.00;100513.84;4927023;29;19923;-77
2023/10/07 06:51:20;;;;;;;;;;;;;;;14.61;100.00;100514.91;4934140;29;19977;-77
2023/10/07 06:53:45;;;;;;;;;;;;;;;14.65;100.00;100518.97;4930594;29;19950;-79
2023/10/07 06:56:20;;;;;;;;;;;;;;;14.74;100.00;100524.25;4923467;29;19923;-78
2023/10/07 06:58:50;;;;;;;;;;;;;;;14.81;100.00;100532.47;4904962;29;19934;-78
2023/10/07 07:01:22;;;;;;;;;;;;;;;14.87;100.00;100537.22;4920209;29;19979;-79
2023/10/07 07:03:47;;;;;;;;;;;;;;;14.90;100.00;100542.25;4905964;29;20320;-79
2023/10/07 07:06:33;;;;;;;;;;;;;;;14.93;100.00;100547.25;4923892;29;19923;-78
2023/10/07 07:08:58;;;;;;;;;;;;;;;15.02;100.00;100541.03;4922868;29;19950;-78
2023/10/07 07:11:25;;;;;;;;;;;;;;;15.02;100.00;100546.34;4924019;29;19954;-78
2023/10/07 07:13:50;;;;;;;;;;;;;;;15.07;100.00;100556.56;4896871;29;19942;-77
2023/10/07 07:16:16;;;;;;;;;;;;;;;15.09;100.00;100552.75;4902121;29;19919;-78
2023/10/07 07:18:41;;;;;;;;;;;;;;;15.06;100.00;100553.06;4924018;29;19934;-77
2023/10/07 07:23:51;;;;;;;;;;;;;;;15.22;100.00;100562.22;4920010;29;20026;-78
2023/10/07 07:26:21;;;;;;;;;;;;;;;15.32;100.00;100563.00;4922477;29;20331;-78
2023/10/07 07:28:46;;;;;;;;;;;;;;;15.40;100.00;100565.75;4919110;29;19926;-78
2023/10/07 07:31:18;;;;;;;;;;;;;;;15.46;100.00;100560.69;4922298;29;20344;-78
2023/10/07 07:33:48;;;;;;;;;;;;;;;15.51;100.00;100568.22;4908285;29;20429;-80
2023/10/07 07:36:47;;;;;;;;;;;;;;;15.60;100.00;100572.69;4691886;29;10000296;-81
2023/10/07 07:39:08;;;;;;;;;;;;;;;15.71;100.00;100568.97;4901589;29;19930;-81
2023/10/07 07:41:55;;;;;;;;;;;;;;;15.78;100.00;100570.03;4915006;29;19942;-81
2023/10/07 07:44:32;;;;;;;;;;;;;;;15.81;100.00;100570.56;4918960;29;19970;-79
2023/10/07 07:47:02;;;;;;;;;;;;;;;15.89;100.00;100570.63;4901685;29;20314;-80
2023/10/07 07:49:31;;;;;;;;;;;;;;;16.00;100.00;100569.56;4219599;29;10020750;-82
2023/10/07 07:51:58;;;;;;;;;;;;;;;16.09;100.00;100567.78;4900874;29;19986;-77
2023/10/07 07:54:24;;;;;;;;;;;;;;;16.19;100.00;100560.56;4921131;29;19975;-75
2023/10/07 07:56:50;;;;;;;;;;;;;;;16.28;100.00;100559.63;4919992;29;20370;-79
2023/10/07 07:59:15;;;;;;;;;;;;;;;16.32;100.00;100563.66;4923461;29;19954;-85
2023/10/07 08:01:44;;;;;;;;;;;;;;;16.40;100.00;100566.38;4922853;29;19930;-80
2023/10/07 08:04:17;;;;;;;;;;;;;;;16.49;100.00;100568.13;4924477;29;19927;-81
2023/10/07 08:06:42;;;;;;;;;;;;;;;16.59;100.00;100576.88;4920403;29;19967;-81
2023/10/07 08:09:10;;;;;;;;;;;;;;;16.66;100.00;100574.44;4923069;29;20343;-80
2023/10/07 08:11:35;;;;;;;;;;;;;;;16.73;100.00;100573.63;4922560;29;19930;-79
2023/10/07 08:14:09;;;;;;;;;;;;;;;16.83;100.00;100572.69;4923500;29;19923;-78
2023/10/07 08:16:46;;;;;;;;;;;;;;;16.93;100.00;100573.41;4903903;29;20380;-78
2023/10/07 08:19:20;;;;;;;;;;;;;;;17.03;100.00;100568.78;4900843;29;19931;-77
2023/10/07 08:21:51;;;;;;;;;;;;;;;17.13;100.00;100580.19;4925067;29;19970;-77
2023/10/07 08:24:18;;;;;;;;;;;;;;;17.23;100.00;100575.53;4925037;29;19923;-77
2023/10/07 08:26:48;;;;;;;;;;;;;;;17.33;100.00;100575.41;4907550;29;20034;-83
2023/10/07 08:29:31;;;;;;;;;;;;;;;17.42;100.00;100575.28;4926827;29;19933;-83
2023/10/07 08:31:57;;;;;;;;;;;;;;;17.53;100.00;100572.31;4922571;29;20399;-84
2023/10/07 08:34:31;;;;;;;;;;;;;;;17.59;100.00;100577.00;4920800;29;20380;-84
2023/10/07 08:37:00;;;;;;;;;;;;;;;17.67;100.00;100578.06;4919516;29;19923;-84
2023/10/07 08:39:28;;;;;;;;;;;;;;;17.75;100.00;100575.38;4905745;29;19930;-83
2023/10/07 08:41:57;;;;;;;;;;;;;;;17.83;100.00;100572.75;4927281;29;19949;-84
2023/10/07 08:44:29;;;;;;;;;;;;;;;17.91;100.00;100578.06;4921111;29;19934;-82
2023/10/07 08:47:03;;;;;;;;;;;;;;;17.97;100.00;100577.41;4921118;29;21329;-82
2023/10/07 08:49:32;;;;;;;;;;;;;;;18.05;100.00;100582.78;4922803;29;19934;-83
2023/10/07 08:51:59;;;;;;;;;;;;;;;18.12;100.00;100583.78;4923892;29;19923;-81
2023/10/07 08:54:31;;;;;;;;;;;;;;;18.17;100.00;100576.09;4926042;29;19923;-78
2023/10/07 08:56:59;;;;;;;;;;;;;;;18.25;100.00;100584.13;4924690;29;19931;-77
2023/10/07 08:59:30;;;;;;;;;;;;;;;18.32;100.00;100590.44;4926764;29;19930;-79
2023/10/07 09:02:00;;;;;;;;;;;;;;;18.40;100.00;100578.94;4909278;29;19922;-78
2023/10/07 09:04:26;;;;;;;;;;;;;;;18.46;100.00;100575.59;4919236;29;19986;-78
2023/10/07 09:06:51;;;;;;;;;;;;;;;18.53;100.00;100578.41;4912979;29;19927;-77
2023/10/07 09:09:35;;;;;;;;;;;;;;;18.57;100.00;100577.09;4908534;29;19978;-79
2023/10/07 09:12:08;;;;;;;;;;;;;;;18.59;100.00;100567.91;4910660;29;19930;-78
2023/10/07 09:14:33;;;;;;;;;;;;;;;18.65;100.00;100563.72;4911871;29;20009;-77
2023/10/07 09:17:01;;;;;;;;;;;;;;;18.74;100.00;100568.88;4906531;29;19930;-77
2023/10/07 09:19:28;;;;;;;;;;;;;;;18.78;100.00;100558.69;4891019;29;19938;-78
2023/10/07 09:21:57;;;;;;;;;;;;;;;18.83;100.00;100567.03;4894069;29;20041;-77
2023/10/07 09:24:25;;;;;;;;;;;;;;;18.89;100.00;100566.34;4907101;29;19931;-79
2023/10/07 09:26:58;;;;;;;;;;;;;;;18.92;100.00;100571.34;4907522;29;19986;-86
2023/10/07 09:29:24;;;;;;;;;;;;;;;18.96;100.00;100567.34;4891405;29;19931;-88
2023/10/07 09:32:16;;;;;;;;;;;;;;;19.01;100.00;100569.50;4892865;29;19931;-86
2023/10/07 09:34:42;;;;;;;;;;;;;;;19.09;100.00;100570.28;4906844;29;19941;-86
2023/10/07 09:37:18;;;;;;;;;;;;;;;19.16;100.00;100563.22;4909854;29;19935;-85
2023/10/07 09:39:53;;;;;;;;;;;;;;;19.22;100.00;100559.84;4907767;29;19931;-86
2023/10/07 09:42:38;;;;;;;;;;;;;;;19.30;100.00;100558.16;4913322;29;19927;-86
2023/10/07 09:45:28;;;;;;;;;;;;;;;19.39;100.00;100559.78;4911333;29;19954;-85
2023/10/07 09:47:49;;;;;;;;;;;;;;;19.47;100.00;100549.91;4908543;29;20102;-85
2023/10/07 09:52:52;;;;;;;;;;;;;;;19.61;100.00;100551.00;4910990;29;19923;-85
2023/10/07 09:55:38;;;;;;;;;;;;;;;19.69;100.00;100553.59;4889033;29;19930;-86
2023/10/07 09:58:06;;;;;;;;;;;;;;;19.75;100.00;100547.53;4906140;29;19931;-86
2023/10/07 10:00:39;;;;;;;;;;;;;;;19.81;100.00;100543.31;4910400;29;20424;-85
2023/10/07 10:03:28;;;;;;;;;;;;;;;19.87;100.00;100535.41;4908003;29;20273;-85
2023/10/07 10:06:16;;;;;;;;;;;;;;;19.94;100.00;100541.72;4886335;29;19938;-85
2023/10/07 10:08:44;;;;;;;;;;;;;;;20.01;100.00;100531.97;4908522;29;20351;-86
2023/10/07 10:11:31;;;;;;;;;;;;;;;20.06;100.00;100539.44;4905980;29;19999;-84
2023/10/07 10:16:44;;;;;;;;;;;;;;;20.17;100.00;100524.78;4905089;29;19927;-87
2023/10/07 10:19:23;;;;;;;;;;;;;;;20.21;100.00;100526.06;4907192;29;19927;-87
2023/10/07 10:21:50;;;;;;;;;;;;;;;20.24;100.00;100521.19;4904637;29;20384;-86
2023/10/07 10:24:15;;;;;;;;;;;;;;;20.27;100.00;100520.81;4906115;29;20471;-87
2023/10/07 10:26:41;;;;;;;;;;;;;;;20.32;100.00;100517.66;4903351;29;19931;-87
2023/10/07 10:29:15;;;;;;;;;;;;;;;20.37;100.00;100512.56;4902491;29;19931;-87
2023/10/07 10:31:48;;;;;;;;;;;;;;;20.42;100.00;100513.69;4906261;29;19927;-86
2023/10/07 10:34:14;;;;;;;;;;;;;;;20.49;100.00;100516.47;4904251;29;20033;-86
2023/10/07 10:36:43;;;;;;;;;;;;;;;20.53;100.00;100504.34;4888283;29;19938;-86
2023/10/07 10:39:18;;;;;;;;;;;;;;;20.62;100.00;100513.97;4911114;29;21223;-86
2023/10/07 10:41:44;;;;;;;;;;;;;;;20.67;100.00;100500.84;4547542;29;9999884;-86
2023/10/07 10:44:14;;;;;;;;;;;;;;;20.76;100.00;100499.72;4911548;29;19966;-84
2023/10/07 10:46:44;;;;;;;;;;;;;;;20.81;100.00;100485.75;4891447;29;19986;-84
2023/10/07 10:49:11;;;;;;;;;;;;;;;20.89;100.00;100490.19;4910064;29;20403;-83
2023/10/07 10:51:45;;;;;;;;;;;;;;;20.96;100.00;100491.94;4893025;29;19966;-83
2023/10/07 10:54:18;;;;;;;;;;;;;;;21.05;100.00;100487.28;4898023;29;19940;-83
2023/10/07 10:56:47;;;;;;;;;;;;;;;21.12;100.00;100480.16;4920244;29;20426;-82
2023/10/07 10:59:14;;;;;;;;;;;;;;;21.20;100.00;100480.09;4929580;29;19923;-83
2023/10/07 11:01:43;;;;;;;;;;;;;;;21.31;100.00;100476.91;4925825;29;20386;-83
2023/10/07 11:04:12;;;;;;;;;;;;;;;21.41;100.00;100472.06;4931797;29;19929;-84
2023/10/07 11:06:39;;;;;;;;;;;;;;;21.47;100.00;100460.56;4907964;29;19975;-82
2023/10/07 11:09:05;;;;;;;;;;;;;;;21.55;100.00;100468.50;4927268;29;19923;-82
2023/10/07 11:11:35;;;;;;;;;;;;;;;21.65;100.00;100469.00;4927991;29;19962;-82
2023/10/07 11:14:05;;;;;;;;;;;;;;;21.77;100.00;100465.78;4910492;29;20399;-82
2023/10/07 11:16:31;;;;;;;;;;;;;;;21.88;100.00;100462.56;4928317;29;19945;-81
2023/10/07 11:18:57;;;;;;;;;;;;;;;21.99;100.00;100454.00;4929384;29;20428;-82
2023/10/07 11:21:23;;;;;;;;;;;;;;;22.14;100.00;100457.47;4927283;29;19923;-82
2023/10/07 11:23:49;;;;;;;;;;;;;;;22.30;100.00;100446.38;4926923;29;20704;-80
2023/10/07 11:26:17;;;;;;;;;;;;;;;22.43;100.00;100441.09;4927201;29;19937;-80
2023/10/07 11:28:47;;;;;;;;;;;;;;;22.58;100.00;100445.50;4926496;29;19931;-81
2023/10/07 11:31:19;;;;;;;;;;;;;;;22.72;100.00;100439.22;4911404;29;19927;-81
2023/10/07 11:33:51;;;;;;;;;;;;;;;22.85;100.00;100439.28;4929430;29;19923;-82
2023/10/07 11:36:16;;;;;;;;;;;;;;;22.98;100.00;100438.47;4926122;29;20328;-82
2023/10/07 11:38:42;;;;;;;;;;;;;;;23.11;100.00;100436.66;4931612;29;19923;-82
2023/10/07 11:41:10;;;;;;;;;;;;;;;23.19;100.00;100425.72;4904573;29;19923;-82
2023/10/07 11:43:47;;;;;;;;;;;;;;;23.34;100.00;100422.00;4907588;29;20010;-83
2023/10/07 11:46:13;;;;;;;;;;;;;;;23.48;100.00;100416.47;4929254;29;19958;-81
2023/10/07 11:48:41;;;;;;;;;;;;;;;23.63;100.00;100416.25;4939369;29;19966;-84
2023/10/07 11:51:07;;;;;;;;;;;;;;;23.75;100.00;100409.22;4932116;29;19923;-83
2023/10/07 11:53:33;;;;;;;;;;;;;;;23.82;100.00;100404.66;4921346;29;20542;-83
2023/10/07 11:55:58;;;;;;;;;;;;;;;23.81;100.00;100402.16;4927630;29;20066;-82
2023/10/07 11:58:24;;;;;;;;;;;;;;;23.87;100.00;100402.16;4935957;29;19933;-84
2023/10/07 12:00:50;;;;;;;;;;;;;;;24.00;100.00;100402.16;4914050;29;19966;-82
2023/10/07 12:03:17;;;;;;;;;;;;;;;24.16;100.00;100394.66;4934117;29;19930;-82
2023/10/07 12:05:43;;;;;;;;;;;;;;;24.29;100.00;100394.66;4917937;29;19931;-82
2023/10/07 12:08:11;;;;;;;;;;;;;;;24.40;100.00;100391.31;4898109;29;20243;-82
2023/10/07 12:10:37;;;;;;;;;;;;;;;24.52;100.00;100402.25;4921179;29;20021;-84
2023/10/07 12:13:07;;;;;;;;;;;;;;;24.64;100.00;100392.47;4916525;29;20019;-84
2023/10/07 12:15:32;;;;;;;;;;;;;;;24.80;100.00;100387.41;4917850;29;19965;-83
2023/10/07 12:17:58;;;;;;;;;;;;;;;24.95;100.00;100379.06;4931653;29;19923;-84
2023/10/07 12:20:23;;;;;;;;;;;;;;;25.04;100.00;100374.22;4918605;29;19923;-85
2023/10/07 12:22:49;;;;;;;;;;;;;;;25.11;100.00;100377.72;4929193;29;19981;-84
2023/10/07 12:25:18;;;;;;;;;;;;;;;25.24;100.00;100375.78;4924190;29;19966;-84
2023/10/07 12:27:44;;;;;;;;;;;;;;;25.38;100.00;100378.38;4926580;29;19927;-85
2023/10/07 12:30:11;;;;;;;;;;;;;;;25.48;100.00;100374.13;4928157;29;19978;-84
2023/10/07 12:32:59;;;;;;;;;;;;;;;25.54;100.00;100362.44;4908432;29;20001;-86
2023/10/07 12:35:24;;;;;;;;;;;;;;;25.61;100.00;100363.25;4912589;29;19962;-87
2023/10/07 12:37:53;;;;;;;;;;;;;;;25.69;100.00;100360.25;4924454;29;19986;-84
2023/10/07 12:40:18;;;;;;;;;;;;;;;25.77;100.00;100361.03;4929141;29;20431;-86
2023/10/07 12:42:45;;;;;;;;;;;;;;;25.77;100.00;100366.44;4929159;29;19923;-84
2023/10/07 12:45:13;;;;;;;;;;;;;;;25.91;100.00;100360.69;4933990;29;19930;-84
2023/10/07 12:47:42;;;;;;;;;;;;;;;25.99;100.00;100348.75;4936522;29;19940;-84
2023/10/07 12:50:29;;;;;;;;;;;;;;;26.12;100.00;100351.31;4931071;29;19919;-82
2023/10/07 12:52:54;;;;;;;;;;;;;;;26.21;100.00;100347.28;4931029;29;19927;-84
2023/10/07 12:55:20;;;;;;;;;;;;;;;26.28;100.00;100350.75;4932268;29;20450;-84
2023/10/07 12:57:49;;;;;;;;;;;;;;;26.33;100.00;100350.09;4912317;29;19931;-86
2023/10/07 13:00:27;;;;;;;;;;;;;;;26.40;100.00;100357.06;4932851;29;19926;-86
2023/10/07 13:02:53;;;;;;;;;;;;;;;26.22;100.00;100348.91;4934382;29;19927;-85
2023/10/07 13:05:19;;;;;;;;;;;;;;;26.33;100.00;100348.19;4932686;29;19966;-85
2023/10/07 13:07:45;;;;;;;;;;;;;;;26.41;100.00;100347.06;4935496;29;19930;-84
2023/10/07 13:10:11;;;;;;;;;;;;;;;26.51;100.00;100346.53;4931412;29;19923;-82
2023/10/07 13:12:37;;;;;;;;;;;;;;;26.57;100.00;100337.50;4941826;29;19965;-84
2023/10/07 13:15:10;;;;;;;;;;;;;;;26.44;100.00;100335.78;4934116;29;19923;-85
2023/10/07 13:17:36;;;;;;;;;;;;;;;26.47;100.00;100340.75;4918466;29;19923;-86